Time,TemperatureF,DewpointF,PressureIn,WindDirection,WindDirectionDegrees,WindSpeedMPH,WindSpeedGustMPH,Humidity,HourlyPrecipIn,Conditions,Clouds,dailyrainin,SoftwareType,DateUTC
2013-06-25 00:01:00,65.8,65.2,29.97,ESE,112,0.0,0.0,98,0.00,,,0.00,VWS V14.01,2013-06-25 04:01:00,
2013-06-25 00:02:00,65.8,65.2,29.97,ESE,112,0.0,0.0,98,0.00,,,0.00,VWS V14.01,2013-06-25 04:02:00,
2013-06-25 00:03:00,65.8,65.2,29.97,ESE,112,0.0,0.0,98,0.00,,,0.00,VWS V14.01,2013-06-25 04:03:00,
2013-06-25 00:08:00,65.8,65.2,29.98,ESE,112,0.0,0.0,98,0.00,,,0.00,VWS V14.01,2013-06-25 04:08:00,
2013-06-25 00:13:00,65.8,65.2,29.98,ESE,112,0.0,0.0,98,0.00,,,0.00,VWS V14.01,2013-06-25 04:13:00,
2013-06-25 00:18:00,65.9,65.3,29.98,ESE,112,0.0,0.0,98,0.00,,,0.00,VWS V14.01,2013-06-25 04:18:00,
2013-06-25 00:23:00,65.9,65.3,29.98,ESE,112,0.0,0.0,98,0.00,,,0.00,VWS V14.01,2013-06-25 04:23:00,
2013-06-25 00:28:00,65.8,65.2,29.98,ESE,112,0.0,0.0,98,0.00,,,0.00,VWS V14.01,2013-06-25 04:28:00,
2013-06-25 00:33:00,65.9,65.3,29.98,ESE,112,0.0,0.0,98,0.00,,,0.00,VWS V14.01,2013-06-25 04:33:00,
2013-06-25 00:39:00,65.9,65.3,29.98,ESE,112,0.0,0.0,98,0.00,,,0.00,VWS V14.01,2013-06-25 04:39:00,
2013-06-25 00:44:00,65.9,65.3,29.98,ESE,112,0.0,0.0,98,0.00,,,0.00,VWS V14.01,2013-06-25 04:44:00,
2013-06-25 00:49:00,65.9,65.3,29.97,ESE,112,0.0,0.0,98,0.00,,,0.00,VWS V14.01,2013-06-25 04:49:00,
2013-06-25 00:54:00,65.9,65.3,29.97,ESE,112,0.0,0.0,98,0.00,,,0.00,VWS V14.01,2013-06-25 04:54:00,
2013-06-25 00:59:00,65.9,65.3,29.97,ESE,112,0.0,0.0,98,0.00,,,0.00,VWS V14.01,2013-06-25 04:59:00,
2013-06-25 01:04:00,65.8,65.2,29.97,ESE,112,0.0,0.0,98,0.00,,,0.00,VWS V14.01,2013-06-25 05:04:00,
2013-06-25 01:09:00,65.8,65.2,29.97,ESE,112,0.0,0.0,98,0.00,,,0.00,VWS V14.01,2013-06-25 05:09:00,
2013-06-25 01:14:00,65.7,65.1,29.97,ESE,112,0.0,0.0,98,0.00,,,0.00,VWS V14.01,2013-06-25 05:14:00,
2013-06-25 01:19:00,65.6,65.0,29.97,ESE,112,0.0,0.0,98,0.00,,,0.00,VWS V14.01,2013-06-25 05:19:00,
2013-06-25 01:24:00,65.6,65.0,29.97,ESE,112,0.0,0.0,98,0.00,,,0.00,VWS V14.01,2013-06-25 05:24:00,
2013-06-25 01:30:00,65.5,64.9,29.97,ESE,112,0.0,0.0,98,0.00,,,0.00,VWS V14.01,2013-06-25 05:30:00,
2013-06-25 01:35:00,65.4,64.8,29.97,ESE,112,0.0,0.0,98,0.00,,,0.00,VWS V14.01,2013-06-25 05:35:00,
2013-06-25 01:40:00,65.4,64.8,29.97,ESE,112,0.0,0.0,98,0.00,,,0.00,VWS V14.01,2013-06-25 05:40:00,
2013-06-25 01:45:00,65.4,64.8,29.96,ESE,112,0.0,0.0,98,0.00,,,0.00,VWS V14.01,2013-06-25 05:45:00,
2013-06-25 01:50:00,65.3,65.0,29.96,ESE,112,0.0,0.0,99,0.00,,,0.00,VWS V14.01,2013-06-25 05:50:00,
2013-06-25 01:55:00,65.3,64.7,29.96,ESE,112,0.0,0.0,98,0.00,,,0.00,VWS V14.01,2013-06-25 05:55:00,
2013-06-25 02:00:00,65.3,64.7,29.95,ESE,112,0.0,0.0,98,0.00,,,0.00,VWS V14.01,2013-06-25 06:00:00,
2013-06-25 02:05:00,65.3,64.7,29.95,ESE,112,0.0,0.0,98,0.00,,,0.00,VWS V14.01,2013-06-25 06:05:00,
2013-06-25 02:10:00,65.2,64.6,29.95,ESE,112,0.0,0.0,98,0.00,,,0.00,VWS V14.01,2013-06-25 06:10:00,
2013-06-25 02:16:00,65.2,64.6,29.95,ESE,112,0.0,0.0,98,0.00,,,0.00,VWS V14.01,2013-06-25 06:16:00,
2013-06-25 02:21:00,65.1,64.5,29.95,ESE,112,0.0,0.0,98,0.00,,,0.00,VWS V14.01,2013-06-25 06:21:00,
2013-06-25 02:26:00,65.0,64.4,29.94,ESE,112,0.0,0.0,98,0.00,,,0.00,VWS V14.01,2013-06-25 06:26:00,
2013-06-25 02:31:00,65.0,64.4,29.94,ESE,112,0.0,0.0,98,0.00,,,0.00,VWS V14.01,2013-06-25 06:31:00,
2013-06-25 02:36:00,64.9,64.3,29.94,ESE,112,0.0,0.0,98,0.00,,,0.00,VWS V14.01,2013-06-25 06:36:00,
2013-06-25 02:41:00,64.8,64.2,29.94,ESE,112,0.0,0.0,98,0.00,,,0.00,VWS V14.01,2013-06-25 06:41:00,
2013-06-25 02:46:00,64.7,64.1,29.94,ESE,112,0.0,0.0,98,0.00,,,0.00,VWS V14.01,2013-06-25 06:46:00,
2013-06-25 02:51:00,64.6,64.0,29.94,ESE,112,0.0,0.0,98,0.00,,,0.00,VWS V14.01,2013-06-25 06:51:00,
2013-06-25 02:56:00,64.5,63.9,29.94,ESE,112,0.0,0.0,98,0.00,,,0.00,VWS V14.01,2013-06-25 06:56:00,
2013-06-25 03:01:00,64.4,63.8,29.93,ESE,112,0.0,0.0,98,0.00,,,0.00,VWS V14.01,2013-06-25 07:01:00,
2013-06-25 03:06:00,64.4,63.8,29.93,ESE,112,0.0,0.0,98,0.00,,,0.00,VWS V14.01,2013-06-25 07:06:00,
2013-06-25 03:12:00,64.3,63.7,29.93,ESE,112,0.0,0.0,98,0.00,,,0.00,VWS V14.01,2013-06-25 07:12:00,
2013-06-25 03:17:00,64.3,63.7,29.93,ESE,112,0.0,0.0,98,0.00,,,0.00,VWS V14.01,2013-06-25 07:17:00,
2013-06-25 03:22:00,64.3,64.0,29.94,ESE,112,0.0,0.0,99,0.00,,,0.00,VWS V14.01,2013-06-25 07:22:00,
2013-06-25 03:27:00,64.2,63.9,29.93,ESE,112,0.0,0.0,99,0.00,,,0.00,VWS V14.01,2013-06-25 07:27:00,
2013-06-25 03:32:00,64.1,63.8,29.93,ESE,112,0.0,0.0,99,0.00,,,0.00,VWS V14.01,2013-06-25 07:32:00,
2013-06-25 03:37:00,64.1,63.5,29.93,ESE,112,0.0,0.0,98,0.00,,,0.00,VWS V14.01,2013-06-25 07:37:00,
2013-06-25 03:42:00,64.0,63.4,29.93,ESE,112,0.0,0.0,98,0.00,,,0.00,VWS V14.01,2013-06-25 07:42:00,
2013-06-25 03:47:00,64.0,63.4,29.93,ESE,112,0.0,0.0,98,0.00,,,0.00,VWS V14.01,2013-06-25 07:47:00,
2013-06-25 03:53:00,63.9,63.3,29.93,ESE,112,0.0,0.0,98,0.00,,,0.00,VWS V14.01,2013-06-25 07:53:00,
2013-06-25 03:57:00,63.8,63.2,29.92,ESE,112,0.0,0.0,98,0.00,,,0.00,VWS V14.01,2013-06-25 07:57:00,
2013-06-25 04:03:00,63.7,63.4,29.92,ESE,112,0.0,0.0,99,0.00,,,0.00,VWS V14.01,2013-06-25 08:03:00,
2013-06-25 04:08:00,63.6,63.3,29.92,ESE,112,0.0,0.0,99,0.00,,,0.00,VWS V14.01,2013-06-25 08:08:00,
2013-06-25 04:13:00,63.5,63.2,29.93,ESE,112,0.0,0.0,99,0.00,,,0.00,VWS V14.01,2013-06-25 08:13:00,
2013-06-25 04:18:00,63.5,63.2,29.93,ESE,112,0.0,0.0,99,0.00,,,0.00,VWS V14.01,2013-06-25 08:18:00,
2013-06-25 04:23:00,63.4,63.1,29.93,ESE,112,0.0,0.0,99,0.00,,,0.00,VWS V14.01,2013-06-25 08:23:00,
2013-06-25 04:28:00,63.4,62.8,29.93,ESE,112,0.0,0.0,98,0.00,,,0.00,VWS V14.01,2013-06-25 08:28:00,
2013-06-25 04:33:00,63.4,62.8,29.93,ESE,112,0.0,0.0,98,0.00,,,0.00,VWS V14.01,2013-06-25 08:33:00,
2013-06-25 04:38:00,63.5,63.2,29.92,ESE,112,0.0,0.0,99,0.00,,,0.00,VWS V14.01,2013-06-25 08:38:00,
2013-06-25 04:44:00,63.5,63.5,29.93,ESE,112,0.0,0.0,100,0.00,,,0.00,VWS V14.01,2013-06-25 08:44:00,
2013-06-25 04:49:00,63.6,63.3,29.93,ESE,112,0.0,0.0,99,0.00,,,0.00,VWS V14.01,2013-06-25 08:49:00,
2013-06-25 04:54:00,63.6,63.3,29.93,ESE,112,0.0,0.0,99,0.00,,,0.00,VWS V14.01,2013-06-25 08:54:00,
2013-06-25 04:59:00,63.6,63.3,29.93,ESE,112,0.0,0.0,99,0.00,,,0.00,VWS V14.01,2013-06-25 08:59:00,
2013-06-25 05:04:00,63.7,63.4,29.93,ESE,112,0.0,0.0,99,0.00,,,0.00,VWS V14.01,2013-06-25 09:04:00,
2013-06-25 05:09:00,63.7,63.4,29.93,ESE,112,0.0,0.0,99,0.00,,,0.00,VWS V14.01,2013-06-25 09:09:00,
2013-06-25 05:14:00,63.7,63.4,29.93,ESE,112,0.0,0.0,99,0.00,,,0.00,VWS V14.01,2013-06-25 09:14:00,
2013-06-25 05:19:00,63.8,63.5,29.93,ESE,112,0.0,0.0,99,0.00,,,0.00,VWS V14.01,2013-06-25 09:19:00,
2013-06-25 05:25:00,63.8,63.5,29.93,ESE,112,0.0,0.0,99,0.00,,,0.00,VWS V14.01,2013-06-25 09:25:00,
2013-06-25 05:30:00,63.9,63.6,29.93,ESE,112,0.0,0.0,99,0.00,,,0.00,VWS V14.01,2013-06-25 09:30:00,
2013-06-25 05:35:00,63.9,63.6,29.93,ESE,112,0.0,0.0,99,0.00,,,0.00,VWS V14.01,2013-06-25 09:35:00,
2013-06-25 05:40:00,63.8,63.5,29.94,ESE,112,0.0,0.0,99,0.00,,,0.00,VWS V14.01,2013-06-25 09:40:00,
2013-06-25 05:45:00,63.7,63.4,29.94,ESE,112,0.0,0.0,99,0.00,,,0.00,VWS V14.01,2013-06-25 09:45:00,
2013-06-25 05:50:00,63.7,63.4,29.93,ESE,112,0.0,0.0,99,0.00,,,0.00,VWS V14.01,2013-06-25 09:50:00,
2013-06-25 05:55:00,63.7,63.4,29.93,ESE,112,0.0,0.0,99,0.00,,,0.00,VWS V14.01,2013-06-25 09:55:00,
2013-06-25 06:00:00,63.8,63.5,29.93,ESE,112,0.0,0.0,99,0.00,,,0.00,VWS V14.01,2013-06-25 10:00:00,
2013-06-25 06:05:00,63.8,63.5,29.94,ESE,112,0.0,0.0,99,0.00,,,0.00,VWS V14.01,2013-06-25 10:05:00,
2013-06-25 06:11:00,63.8,63.5,29.94,ESE,112,0.0,0.0,99,0.00,,,0.00,VWS V14.01,2013-06-25 10:11:00,
2013-06-25 06:16:00,63.8,63.5,29.94,ESE,112,0.0,0.0,99,0.00,,,0.00,VWS V14.01,2013-06-25 10:16:00,
2013-06-25 06:21:00,63.8,63.5,29.93,ESE,112,0.0,0.0,99,0.00,,,0.00,VWS V14.01,2013-06-25 10:21:00,
2013-06-25 06:26:00,63.8,63.5,29.93,ESE,112,0.0,0.0,99,0.00,,,0.00,VWS V14.01,2013-06-25 10:26:00,
2013-06-25 06:31:00,63.9,63.6,29.93,ESE,112,0.0,0.0,99,0.00,,,0.00,VWS V14.01,2013-06-25 10:31:00,
2013-06-25 06:36:00,63.9,63.6,29.93,ESE,112,1.0,1.0,99,0.00,,,0.00,VWS V14.01,2013-06-25 10:36:00,
2013-06-25 06:41:00,63.9,63.6,29.92,ESE,112,0.0,1.0,99,0.00,,,0.00,VWS V14.01,2013-06-25 10:41:00,
2013-06-25 06:46:00,63.8,63.5,29.92,ESE,112,0.0,1.0,99,0.00,,,0.00,VWS V14.01,2013-06-25 10:46:00,
2013-06-25 06:51:00,63.9,63.6,29.92,ESE,112,0.0,1.0,99,0.00,,,0.00,VWS V14.01,2013-06-25 10:51:00,
2013-06-25 06:57:00,64.1,63.8,29.92,ESE,112,0.0,1.0,99,0.00,,,0.00,VWS V14.01,2013-06-25 10:57:00,
2013-06-25 07:02:00,64.3,64.0,29.92,ESE,112,0.0,0.0,99,0.01,,,0.01,VWS V14.01,2013-06-25 11:02:00,
2013-06-25 07:07:00,64.6,64.3,29.92,ESE,112,0.0,0.0,99,0.01,,,0.01,VWS V14.01,2013-06-25 11:07:00,
2013-06-25 07:12:00,65.0,64.7,29.93,ESE,112,0.0,0.0,99,0.01,,,0.01,VWS V14.01,2013-06-25 11:12:00,
2013-06-25 07:17:00,65.3,65.0,29.93,ESE,112,0.0,0.0,99,0.01,,,0.01,VWS V14.01,2013-06-25 11:17:00,
2013-06-25 07:22:00,65.6,65.3,29.93,ESE,112,0.0,0.0,99,0.01,,,0.01,VWS V14.01,2013-06-25 11:22:00,
2013-06-25 07:27:00,65.9,65.6,29.93,WNW,290,0.0,0.0,99,0.01,,,0.01,VWS V14.01,2013-06-25 11:27:00,
2013-06-25 07:32:00,66.2,66.2,29.93,WNW,290,0.0,0.0,100,0.01,,,0.01,VWS V14.01,2013-06-25 11:32:00,
2013-06-25 07:37:00,66.5,66.2,29.93,WNW,290,0.0,0.0,99,0.01,,,0.01,VWS V14.01,2013-06-25 11:37:00,
2013-06-25 07:42:00,66.5,66.2,29.93,WNW,290,0.0,0.0,99,0.01,,,0.01,VWS V14.01,2013-06-25 11:42:00,
2013-06-25 07:47:00,66.4,66.1,29.93,WNW,290,0.0,0.0,99,0.01,,,0.01,VWS V14.01,2013-06-25 11:47:00,
2013-06-25 07:53:00,66.5,66.2,29.92,WNW,290,0.0,0.0,99,0.01,,,0.01,VWS V14.01,2013-06-25 11:53:00,
2013-06-25 07:58:00,66.4,66.1,29.92,SW,214,0.0,2.0,99,0.01,,,0.01,VWS V14.01,2013-06-25 11:58:00,
2013-06-25 08:03:00,66.6,66.3,29.92,SW,214,0.0,0.0,99,0.00,,,0.01,VWS V14.01,2013-06-25 12:03:00,
2013-06-25 08:08:00,67.0,66.7,29.92,SW,214,0.0,0.0,99,0.00,,,0.01,VWS V14.01,2013-06-25 12:08:00,
2013-06-25 08:13:00,67.7,67.4,29.92,SW,214,0.0,0.0,99,0.00,,,0.01,VWS V14.01,2013-06-25 12:13:00,
2013-06-25 08:18:00,68.7,68.4,29.92,SW,214,0.0,0.0,99,0.00,,,0.01,VWS V14.01,2013-06-25 12:18:00,
2013-06-25 08:23:00,69.6,69.6,29.92,SW,214,0.0,0.0,100,0.00,,,0.01,VWS V14.01,2013-06-25 12:23:00,
2013-06-25 08:28:00,70.2,70.2,29.92,SW,214,0.0,1.0,100,0.00,,,0.01,VWS V14.01,2013-06-25 12:28:00,
2013-06-25 08:33:00,70.6,70.3,29.92,SW,214,0.0,0.0,99,0.00,,,0.01,VWS V14.01,2013-06-25 12:33:00,
2013-06-25 08:38:00,71.4,71.1,29.92,SSW,213,0.0,0.0,99,0.00,,,0.01,VWS V14.01,2013-06-25 12:38:00,
2013-06-25 08:44:00,72.0,71.1,29.92,SSW,213,0.0,0.0,97,0.00,,,0.01,VWS V14.01,2013-06-25 12:44:00,
2013-06-25 08:49:00,72.7,71.5,29.92,SSW,213,0.0,0.0,96,0.00,,,0.01,VWS V14.01,2013-06-25 12:49:00,
2013-06-25 08:54:00,73.4,71.9,29.92,SSW,213,0.0,1.0,95,0.00,,,0.01,VWS V14.01,2013-06-25 12:54:00,
2013-06-25 08:59:00,73.8,72.0,29.91,SSW,213,0.0,1.0,94,0.00,,,0.01,VWS V14.01,2013-06-25 12:59:00,
2013-06-25 09:04:00,74.6,72.8,29.91,SSW,213,0.0,0.0,94,0.00,,,0.01,VWS V14.01,2013-06-25 13:04:00,
2013-06-25 09:09:00,75.5,73.0,29.91,SSW,213,0.0,1.0,92,0.00,,,0.01,VWS V14.01,2013-06-25 13:09:00,
2013-06-25 09:14:00,76.3,73.2,29.91,SSW,213,0.0,1.0,90,0.00,,,0.01,VWS V14.01,2013-06-25 13:14:00,
2013-06-25 09:19:00,76.8,74.0,29.91,East,96,0.0,1.0,91,0.00,,,0.01,VWS V14.01,2013-06-25 13:19:00,
2013-06-25 09:24:00,76.9,73.4,29.91,East,96,0.0,2.0,89,0.00,,,0.01,VWS V14.01,2013-06-25 13:24:00,
2013-06-25 09:30:00,77.2,73.7,29.91,East,95,0.0,2.0,89,0.00,,,0.01,VWS V14.01,2013-06-25 13:30:00,
2013-06-25 09:35:00,77.6,73.8,29.91,ENE,76,0.0,3.0,88,0.00,,,0.01,VWS V14.01,2013-06-25 13:35:00,
2013-06-25 09:40:00,77.9,73.7,29.91,SE,141,2.0,3.0,87,0.00,,,0.01,VWS V14.01,2013-06-25 13:40:00,
2013-06-25 09:45:00,78.2,74.4,29.91,SE,141,0.0,3.0,88,0.00,,,0.01,VWS V14.01,2013-06-25 13:45:00,
2013-06-25 09:50:00,78.8,74.6,29.91,SE,141,0.0,3.0,87,0.00,,,0.01,VWS V14.01,2013-06-25 13:50:00,
2013-06-25 09:55:00,79.4,74.8,29.91,SE,141,0.0,3.0,86,0.00,,,0.01,VWS V14.01,2013-06-25 13:55:00,
2013-06-25 10:00:00,80.0,75.1,29.91,SE,141,0.0,3.0,85,0.00,,,0.01,VWS V14.01,2013-06-25 14:00:00,
2013-06-25 10:05:00,80.5,75.9,29.91,SE,141,0.0,1.0,86,0.00,,,0.01,VWS V14.01,2013-06-25 14:05:00,
2013-06-25 10:10:00,80.7,75.4,29.91,South,186,1.0,2.0,84,0.00,,,0.01,VWS V14.01,2013-06-25 14:10:00,
2013-06-25 10:15:00,80.9,74.5,29.91,SE,138,0.0,2.0,81,0.00,,,0.01,VWS V14.01,2013-06-25 14:15:00,
2013-06-25 10:20:00,81.2,75.6,29.91,ESE,108,0.0,2.0,83,0.00,,,0.01,VWS V14.01,2013-06-25 14:20:00,
2013-06-25 10:25:00,81.6,75.9,29.91,ESE,108,0.0,2.0,83,0.00,,,0.01,VWS V14.01,2013-06-25 14:25:00,
2013-06-25 10:30:00,81.8,75.8,29.91,ENE,74,0.0,4.0,82,0.00,,,0.01,VWS V14.01,2013-06-25 14:30:00,
2013-06-25 10:35:00,82.2,76.2,29.91,ENE,74,0.0,2.0,82,0.00,,,0.01,VWS V14.01,2013-06-25 14:35:00,
2013-06-25 10:40:00,82.5,76.1,29.91,ENE,74,2.0,2.0,81,0.00,,,0.01,VWS V14.01,2013-06-25 14:40:00,
2013-06-25 10:46:00,82.9,76.8,29.91,West,262,0.0,2.0,82,0.00,,,0.01,VWS V14.01,2013-06-25 14:46:00,
2013-06-25 10:51:00,83.2,76.8,29.91,ESE,116,0.0,2.0,81,0.00,,,0.01,VWS V14.01,2013-06-25 14:51:00,
2013-06-25 10:53:00,83.3,76.9,29.91,ESE,109,1.0,2.0,81,0.00,,,0.01,VWS V14.01,2013-06-25 14:53:00,
2013-06-25 10:58:00,83.7,77.2,29.91,ESE,109,0.0,2.0,81,0.00,,,0.01,VWS V14.01,2013-06-25 14:58:00,
2013-06-25 11:03:00,84.0,77.2,29.91,ESE,109,0.0,0.0,80,0.00,,,0.01,VWS V14.01,2013-06-25 15:03:00,
2013-06-25 11:08:00,84.2,77.0,29.91,ESE,109,0.0,0.0,79,0.00,,,0.01,VWS V14.01,2013-06-25 15:08:00,
2013-06-25 11:13:00,84.7,77.1,29.91,ESE,115,0.0,1.0,78,0.00,,,0.01,VWS V14.01,2013-06-25 15:13:00,
2013-06-25 11:18:00,84.8,76.0,29.91,ENE,68,0.0,3.0,75,0.00,,,0.01,VWS V14.01,2013-06-25 15:18:00,
2013-06-25 11:23:00,85.0,76.6,29.91,East,86,3.0,3.0,76,0.00,,,0.01,VWS V14.01,2013-06-25 15:23:00,
2013-06-25 11:29:00,85.2,76.8,29.90,East,88,0.0,3.0,76,0.00,,,0.01,VWS V14.01,2013-06-25 15:29:00,
2013-06-25 11:34:00,85.6,76.8,29.90,South,179,1.0,2.0,75,0.00,,,0.01,VWS V14.01,2013-06-25 15:34:00,
2013-06-25 11:39:00,85.7,77.3,29.90,East,90,0.0,5.0,76,0.00,,,0.01,VWS V14.01,2013-06-25 15:39:00,
2013-06-25 11:44:00,85.7,76.5,29.90,East,90,0.0,5.0,74,0.00,,,0.01,VWS V14.01,2013-06-25 15:44:00,
2013-06-25 11:49:00,85.9,76.7,29.90,East,90,0.0,5.0,74,0.00,,,0.01,VWS V14.01,2013-06-25 15:49:00,
2013-06-25 11:54:00,86.2,77.3,29.90,East,92,1.0,5.0,75,0.00,,,0.01,VWS V14.01,2013-06-25 15:54:00,
2013-06-25 11:59:00,86.5,77.6,29.90,ESE,117,0.0,5.0,75,0.00,,,0.01,VWS V14.01,2013-06-25 15:59:00,
2013-06-25 12:04:00,86.8,78.3,29.89,SE,137,0.0,2.0,76,0.00,,,0.01,VWS V14.01,2013-06-25 16:04:00,
2013-06-25 12:09:00,86.7,75.3,29.89,ESE,120,0.0,4.0,69,0.00,,,0.01,VWS V14.01,2013-06-25 16:09:00,
2013-06-25 12:14:00,86.8,78.7,29.89,ESE,120,0.0,4.0,77,0.00,,,0.01,VWS V14.01,2013-06-25 16:14:00,
2013-06-25 12:19:00,86.8,77.5,29.89,SSE,149,0.0,4.0,74,0.00,,,0.01,VWS V14.01,2013-06-25 16:19:00,
2013-06-25 12:24:00,86.9,76.8,29.89,East,87,0.0,4.0,72,0.00,,,0.01,VWS V14.01,2013-06-25 16:24:00,
2013-06-25 12:30:00,86.7,77.0,29.89,East,84,0.0,4.0,73,0.00,,,0.01,VWS V14.01,2013-06-25 16:30:00,
2013-06-25 12:35:00,86.8,78.3,29.88,East,92,0.0,3.0,76,0.00,,,0.01,VWS V14.01,2013-06-25 16:35:00,
2013-06-25 12:40:00,87.2,78.7,29.88,East,92,0.0,3.0,76,0.00,,,0.01,VWS V14.01,2013-06-25 16:40:00,
2013-06-25 12:45:00,87.7,78.8,29.88,East,92,0.0,3.0,75,0.00,,,0.01,VWS V14.01,2013-06-25 16:45:00,
2013-06-25 12:50:00,87.9,76.9,29.87,East,84,2.0,3.0,70,0.00,,,0.01,VWS V14.01,2013-06-25 16:50:00,
2013-06-25 12:55:00,87.9,77.3,29.87,WNW,297,2.0,3.0,71,0.00,,,0.01,VWS V14.01,2013-06-25 16:55:00,
2013-06-25 13:00:00,88.1,78.4,29.87,SSW,204,0.0,3.0,73,0.00,,,0.01,VWS V14.01,2013-06-25 17:00:00,
2013-06-25 13:05:00,88.4,79.1,29.86,NW,306,0.0,1.0,74,0.00,,,0.01,VWS V14.01,2013-06-25 17:05:00,
2013-06-25 13:10:00,88.2,76.3,29.86,SSE,153,0.0,3.0,68,0.00,,,0.01,VWS V14.01,2013-06-25 17:10:00,
2013-06-25 13:15:00,88.1,74.4,29.86,East,98,0.0,3.0,64,0.00,,,0.01,VWS V14.01,2013-06-25 17:15:00,
2013-06-25 13:20:00,88.1,73.9,29.86,SSE,159,1.0,4.0,63,0.00,,,0.01,VWS V14.01,2013-06-25 17:20:00,
2013-06-25 13:25:00,88.0,73.8,29.86,SSE,152,0.0,4.0,63,0.00,,,0.01,VWS V14.01,2013-06-25 17:25:00,
2013-06-25 13:30:00,88.2,75.4,29.85,SSE,152,0.0,4.0,66,0.00,,,0.01,VWS V14.01,2013-06-25 17:30:00,
2013-06-25 13:35:00,88.4,73.7,29.85,WSW,254,0.0,4.0,62,0.00,,,0.01,VWS V14.01,2013-06-25 17:35:00,
2013-06-25 13:40:00,88.4,75.1,29.85,East,98,0.0,4.0,65,0.00,,,0.01,VWS V14.01,2013-06-25 17:40:00,
2013-06-25 13:45:00,88.5,75.2,29.85,East,82,0.0,4.0,65,0.00,,,0.01,VWS V14.01,2013-06-25 17:45:00,
2013-06-25 13:51:00,88.8,78.6,29.84,SSE,158,1.0,4.0,72,0.00,,,0.01,VWS V14.01,2013-06-25 17:51:00,
2013-06-25 13:56:00,89.1,75.3,29.85,SSE,159,0.0,4.0,64,0.00,,,0.01,VWS V14.01,2013-06-25 17:56:00,
2013-06-25 14:01:00,89.4,74.2,29.84,SSE,167,1.0,1.0,61,0.00,,,0.01,VWS V14.01,2013-06-25 18:01:00,
2013-06-25 14:06:00,89.6,76.7,29.84,ESE,106,0.0,2.0,66,0.00,,,0.01,VWS V14.01,2013-06-25 18:06:00,
2013-06-25 14:11:00,89.9,77.5,29.84,East,94,0.0,4.0,67,0.00,,,0.01,VWS V14.01,2013-06-25 18:11:00,
2013-06-25 14:16:00,89.7,74.0,29.84,SE,146,0.0,4.0,60,0.00,,,0.01,VWS V14.01,2013-06-25 18:16:00,
2013-06-25 14:21:00,89.9,75.6,29.84,SSE,148,0.0,4.0,63,0.00,,,0.01,VWS V14.01,2013-06-25 18:21:00,
2013-06-25 14:26:00,90.0,76.2,29.84,East,90,0.0,4.0,64,0.00,,,0.01,VWS V14.01,2013-06-25 18:26:00,
2013-06-25 14:31:00,89.7,75.0,29.83,SE,140,0.0,0.0,62,0.00,,,0.01,VWS V14.01,2013-06-25 18:31:00,
2013-06-25 14:36:00,89.7,78.6,29.83,SE,134,0.0,2.0,70,0.00,,,0.01,VWS V14.01,2013-06-25 18:36:00,
2013-06-25 14:41:00,89.3,77.8,29.82,ESE,116,0.0,5.0,69,0.00,,,0.01,VWS V14.01,2013-06-25 18:41:00,
2013-06-25 14:46:00,89.0,75.7,29.82,SSE,151,0.0,5.0,65,0.00,,,0.01,VWS V14.01,2013-06-25 18:46:00,
2013-06-25 14:52:00,89.2,76.4,29.82,SE,134,0.0,5.0,66,0.00,,,0.01,VWS V14.01,2013-06-25 18:52:00,
2013-06-25 14:57:00,89.5,74.8,29.82,ESE,123,0.0,5.0,62,0.00,,,0.01,VWS V14.01,2013-06-25 18:57:00,
2013-06-25 15:02:00,89.7,75.9,29.82,SE,128,4.0,4.0,64,0.00,,,0.01,VWS V14.01,2013-06-25 19:02:00,
2013-06-25 15:07:00,89.3,75.1,29.81,ENE,76,0.0,4.0,63,0.00,,,0.01,VWS V14.01,2013-06-25 19:07:00,
2013-06-25 15:12:00,89.2,76.8,29.81,SE,143,1.0,5.0,67,0.00,,,0.01,VWS V14.01,2013-06-25 19:12:00,
2013-06-25 15:17:00,89.2,75.4,29.81,East,80,0.0,5.0,64,0.00,,,0.01,VWS V14.01,2013-06-25 19:17:00,
2013-06-25 15:22:00,89.3,76.0,29.81,East,101,0.0,5.0,65,0.00,,,0.01,VWS V14.01,2013-06-25 19:22:00,
2013-06-25 15:27:00,89.4,75.6,29.81,SSW,200,1.0,5.0,64,0.00,,,0.01,VWS V14.01,2013-06-25 19:27:00,
2013-06-25 15:32:00,89.3,75.1,29.80,SW,217,1.0,2.0,63,0.00,,,0.01,VWS V14.01,2013-06-25 19:32:00,
2013-06-25 15:37:00,89.2,76.4,29.80,SE,143,0.0,6.0,66,0.00,,,0.01,VWS V14.01,2013-06-25 19:37:00,
2013-06-25 15:42:00,89.2,75.0,29.80,NNE,17,0.0,6.0,63,0.00,,,0.01,VWS V14.01,2013-06-25 19:42:00,
2013-06-25 15:47:00,89.2,74.5,29.80,SW,219,0.0,6.0,62,0.00,,,0.01,VWS V14.01,2013-06-25 19:47:00,
2013-06-25 15:53:00,88.9,73.7,29.80,NE,46,2.0,6.0,61,0.00,,,0.01,VWS V14.01,2013-06-25 19:53:00,
2013-06-25 15:58:00,88.8,73.6,29.79,SW,229,0.0,6.0,61,0.00,,,0.01,VWS V14.01,2013-06-25 19:58:00,
2013-06-25 16:03:00,88.4,73.2,29.79,ENE,60,0.0,3.0,61,0.00,,,0.01,VWS V14.01,2013-06-25 20:03:00,
2013-06-25 16:08:00,88.1,74.4,29.79,ENE,62,2.0,3.0,64,0.00,,,0.01,VWS V14.01,2013-06-25 20:08:00,
2013-06-25 16:13:00,87.5,75.6,29.79,NE,55,0.0,3.0,68,0.00,,,0.01,VWS V14.01,2013-06-25 20:13:00,
2013-06-25 16:18:00,87.0,76.0,29.79,NE,55,0.0,3.0,70,0.00,,,0.01,VWS V14.01,2013-06-25 20:18:00,
2013-06-25 16:23:00,86.7,76.2,29.78,NE,55,0.0,3.0,71,0.00,,,0.01,VWS V14.01,2013-06-25 20:23:00,
2013-06-25 16:28:00,86.3,76.6,29.78,NE,55,0.0,3.0,73,0.00,,,0.01,VWS V14.01,2013-06-25 20:28:00,
2013-06-25 16:33:00,85.9,76.7,29.78,NE,55,0.0,1.0,74,0.00,,,0.01,VWS V14.01,2013-06-25 20:33:00,
2013-06-25 16:38:00,85.6,76.4,29.78,NE,55,0.0,1.0,74,0.00,,,0.01,VWS V14.01,2013-06-25 20:38:00,
2013-06-25 16:43:00,85.2,76.0,29.77,NE,55,0.0,1.0,74,0.00,,,0.01,VWS V14.01,2013-06-25 20:43:00,
2013-06-25 16:48:00,84.9,75.7,29.77,NE,55,0.0,1.0,74,0.00,,,0.01,VWS V14.01,2013-06-25 20:48:00,
2013-06-25 16:53:00,84.7,75.5,29.77,ENE,61,0.0,1.0,74,0.00,,,0.01,VWS V14.01,2013-06-25 20:53:00,
2013-06-25 16:58:00,84.6,76.2,29.76,ENE,61,0.0,1.0,76,0.00,,,0.01,VWS V14.01,2013-06-25 20:58:00,
2013-06-25 17:03:00,84.5,76.9,29.76,ENE,61,0.0,0.0,78,0.00,,,0.01,VWS V14.01,2013-06-25 21:03:00,
2013-06-25 17:08:00,84.4,76.8,29.76,ENE,61,0.0,0.0,78,0.00,,,0.01,VWS V14.01,2013-06-25 21:08:00,
2013-06-25 17:14:00,84.1,75.3,29.75,ENE,61,0.0,0.0,75,0.00,,,0.01,VWS V14.01,2013-06-25 21:14:00,
2013-06-25 17:19:00,83.6,75.6,29.77,ENE,61,0.0,0.0,77,0.00,,,0.01,VWS V14.01,2013-06-25 21:19:00,
2013-06-25 17:24:00,82.4,74.5,29.80,NE,53,3.0,6.0,77,0.01,,,0.02,VWS V14.01,2013-06-25 21:24:00,
2013-06-25 17:29:00,80.7,74.0,29.82,East,84,0.0,6.0,80,0.03,,,0.04,VWS V14.01,2013-06-25 21:29:00,
2013-06-25 17:34:00,78.7,72.8,29.81,ESE,121,0.0,2.0,82,0.08,,,0.09,VWS V14.01,2013-06-25 21:34:00,
2013-06-25 17:39:00,76.9,71.7,29.81,NW,311,0.0,3.0,84,0.16,,,0.17,VWS V14.01,2013-06-25 21:39:00,
2013-06-25 17:44:00,75.7,71.6,29.80,ENE,76,0.0,3.0,87,0.18,,,0.19,VWS V14.01,2013-06-25 21:44:00,
2013-06-25 17:49:00,74.9,71.4,29.80,ENE,76,0.0,3.0,89,0.18,,,0.19,VWS V14.01,2013-06-25 21:49:00,
2013-06-25 17:54:00,74.3,71.5,29.79,ENE,76,0.0,3.0,91,0.18,,,0.19,VWS V14.01,2013-06-25 21:54:00,
2013-06-25 17:59:00,73.9,71.4,29.79,ENE,76,0.0,3.0,92,0.18,,,0.19,VWS V14.01,2013-06-25 21:59:00,
2013-06-25 18:04:00,73.6,71.5,29.79,ENE,76,0.0,0.0,93,0.18,,,0.19,VWS V14.01,2013-06-25 22:04:00,
2013-06-25 18:09:00,73.4,71.6,29.79,ENE,76,0.0,0.0,94,0.18,,,0.19,VWS V14.01,2013-06-25 22:09:00,
2013-06-25 18:15:00,73.3,71.5,29.79,ENE,76,0.0,0.0,94,0.18,,,0.19,VWS V14.01,2013-06-25 22:15:00,
2013-06-25 18:20:00,73.3,71.5,29.78,ENE,76,0.0,0.0,94,0.18,,,0.19,VWS V14.01,2013-06-25 22:20:00,
2013-06-25 18:25:00,73.3,71.8,29.78,ENE,76,0.0,0.0,95,0.18,,,0.19,VWS V14.01,2013-06-25 22:25:00,
2013-06-25 18:30:00,73.4,72.2,29.78,ENE,76,0.0,0.0,96,0.18,,,0.19,VWS V14.01,2013-06-25 22:30:00,
2013-06-25 18:35:00,73.5,72.3,29.77,ENE,76,0.0,0.0,96,0.14,,,0.19,VWS V14.01,2013-06-25 22:35:00,
2013-06-25 18:40:00,73.5,72.3,29.77,ENE,76,0.0,0.0,96,0.14,,,0.19,VWS V14.01,2013-06-25 22:40:00,
2013-06-25 18:45:00,73.6,72.4,29.77,ENE,76,0.0,0.0,96,0.14,,,0.19,VWS V14.01,2013-06-25 22:45:00,
2013-06-25 18:50:00,73.8,72.6,29.77,ENE,76,0.0,0.0,96,0.14,,,0.19,VWS V14.01,2013-06-25 22:50:00,
2013-06-25 18:55:00,73.9,72.7,29.77,ENE,76,0.0,0.0,96,0.14,,,0.19,VWS V14.01,2013-06-25 22:55:00,
2013-06-25 19:00:00,73.9,72.7,29.77,ENE,76,0.0,0.0,96,0.14,,,0.19,VWS V14.01,2013-06-25 23:00:00,
2013-06-25 19:05:00,74.0,72.8,29.77,ENE,76,0.0,0.0,96,0.00,,,0.19,VWS V14.01,2013-06-25 23:05:00,
2013-06-25 19:10:00,74.0,72.8,29.76,ENE,76,0.0,0.0,96,0.00,,,0.19,VWS V14.01,2013-06-25 23:10:00,
2013-06-25 19:16:00,74.0,72.8,29.76,South,183,0.0,0.0,96,0.00,,,0.19,VWS V14.01,2013-06-25 23:16:00,
2013-06-25 19:21:00,74.2,73.0,29.76,South,183,0.0,0.0,96,0.00,,,0.19,VWS V14.01,2013-06-25 23:21:00,
2013-06-25 19:26:00,74.2,73.0,29.76,South,183,0.0,0.0,96,0.00,,,0.19,VWS V14.01,2013-06-25 23:26:00,
2013-06-25 19:31:00,74.1,72.9,29.76,South,183,0.0,0.0,96,0.00,,,0.19,VWS V14.01,2013-06-25 23:31:00,
2013-06-25 19:36:00,74.1,72.9,29.76,South,183,0.0,0.0,96,0.00,,,0.19,VWS V14.01,2013-06-25 23:36:00,
2013-06-25 19:41:00,74.2,73.0,29.76,South,183,0.0,0.0,96,0.00,,,0.19,VWS V14.01,2013-06-25 23:41:00,
2013-06-25 19:46:00,74.2,73.0,29.76,South,184,0.0,0.0,96,0.00,,,0.19,VWS V14.01,2013-06-25 23:46:00,
2013-06-25 19:51:00,74.3,73.1,29.77,South,183,0.0,0.0,96,0.00,,,0.19,VWS V14.01,2013-06-25 23:51:00,
2013-06-25 19:57:00,74.3,73.1,29.77,South,184,0.0,0.0,96,0.00,,,0.19,VWS V14.01,2013-06-25 23:57:00,
2013-06-25 20:02:00,74.2,73.0,29.76,North,11,0.0,0.0,96,0.00,,,0.19,VWS V14.01,2013-06-26 00:02:00,
2013-06-25 20:07:00,74.2,73.0,29.76,North,11,0.0,0.0,96,0.00,,,0.19,VWS V14.01,2013-06-26 00:07:00,
2013-06-25 20:12:00,74.0,72.8,29.77,North,11,0.0,0.0,96,0.00,,,0.19,VWS V14.01,2013-06-26 00:12:00,
2013-06-25 20:17:00,73.9,72.7,29.77,SSW,195,0.0,0.0,96,0.00,,,0.19,VWS V14.01,2013-06-26 00:17:00,
2013-06-25 20:22:00,73.8,72.6,29.77,SSW,195,0.0,0.0,96,0.00,,,0.19,VWS V14.01,2013-06-26 00:22:00,
2013-06-25 20:27:00,73.7,72.5,29.76,SSW,195,0.0,0.0,96,0.00,,,0.19,VWS V14.01,2013-06-26 00:27:00,
2013-06-25 20:32:00,73.4,72.2,29.76,SSW,195,0.0,0.0,96,0.00,,,0.19,VWS V14.01,2013-06-26 00:32:00,
2013-06-25 20:37:00,73.3,72.1,29.77,SSW,195,0.0,0.0,96,0.00,,,0.19,VWS V14.01,2013-06-26 00:37:00,
2013-06-25 20:42:00,73.1,71.9,29.77,SSW,195,0.0,0.0,96,0.00,,,0.19,VWS V14.01,2013-06-26 00:42:00,
2013-06-25 20:47:00,73.0,71.8,29.77,SSW,195,0.0,0.0,96,0.00,,,0.19,VWS V14.01,2013-06-26 00:47:00,
2013-06-25 20:52:00,72.9,71.7,29.77,SSW,195,0.0,0.0,96,0.00,,,0.19,VWS V14.01,2013-06-26 00:52:00,
2013-06-25 20:58:00,72.7,71.5,29.77,SSW,195,0.0,0.0,96,0.00,,,0.19,VWS V14.01,2013-06-26 00:58:00,
2013-06-25 21:03:00,72.6,71.4,29.77,SSW,195,0.0,0.0,96,0.00,,,0.19,VWS V14.01,2013-06-26 01:03:00,
2013-06-25 21:08:00,72.4,71.2,29.77,SSW,195,0.0,0.0,96,0.00,,,0.19,VWS V14.01,2013-06-26 01:08:00,
2013-06-25 21:13:00,72.3,71.1,29.77,SSW,195,0.0,0.0,96,0.00,,,0.19,VWS V14.01,2013-06-26 01:13:00,
2013-06-25 21:18:00,72.1,70.9,29.77,SSW,195,0.0,0.0,96,0.00,,,0.19,VWS V14.01,2013-06-26 01:18:00,
2013-06-25 21:23:00,72.0,70.8,29.77,SSW,195,0.0,0.0,96,0.00,,,0.19,VWS V14.01,2013-06-26 01:23:00,
2013-06-25 21:28:00,71.9,71.0,29.77,SSW,195,0.0,0.0,97,0.00,,,0.19,VWS V14.01,2013-06-26 01:28:00,
2013-06-25 21:33:00,71.9,71.0,29.77,SSW,195,0.0,0.0,97,0.00,,,0.19,VWS V14.01,2013-06-26 01:33:00,
2013-06-25 21:38:00,71.7,70.8,29.78,SSW,195,0.0,0.0,97,0.00,,,0.19,VWS V14.01,2013-06-26 01:38:00,
2013-06-25 21:43:00,71.7,70.8,29.78,SSW,195,0.0,0.0,97,0.00,,,0.19,VWS V14.01,2013-06-26 01:43:00,
2013-06-25 21:48:00,71.5,70.6,29.78,SSW,195,0.0,0.0,97,0.00,,,0.19,VWS V14.01,2013-06-26 01:48:00,
2013-06-25 21:53:00,71.4,70.5,29.78,SSW,195,0.0,0.0,97,0.00,,,0.19,VWS V14.01,2013-06-26 01:53:00,
2013-06-25 21:59:00,71.3,70.4,29.78,SSW,195,0.0,0.0,97,0.00,,,0.19,VWS V14.01,2013-06-26 01:59:00,
2013-06-25 22:04:00,71.2,70.3,29.78,SSW,195,0.0,0.0,97,0.00,,,0.19,VWS V14.01,2013-06-26 02:04:00,
2013-06-25 22:09:00,71.0,70.1,29.78,SSW,195,0.0,0.0,97,0.00,,,0.19,VWS V14.01,2013-06-26 02:09:00,
2013-06-25 22:14:00,70.9,70.0,29.78,SSW,195,0.0,0.0,97,0.00,,,0.19,VWS V14.01,2013-06-26 02:14:00,
2013-06-25 22:19:00,70.8,69.9,29.78,SSW,195,0.0,0.0,97,0.00,,,0.19,VWS V14.01,2013-06-26 02:19:00,
2013-06-25 22:24:00,70.7,69.8,29.78,SSW,195,0.0,0.0,97,0.00,,,0.19,VWS V14.01,2013-06-26 02:24:00,
2013-06-25 22:29:00,70.6,69.7,29.78,SSW,195,0.0,0.0,97,0.00,,,0.19,VWS V14.01,2013-06-26 02:29:00,
2013-06-25 22:34:00,70.6,69.7,29.78,SSW,195,0.0,0.0,97,0.00,,,0.19,VWS V14.01,2013-06-26 02:34:00,
2013-06-25 22:39:00,70.4,69.5,29.79,SSW,195,0.0,0.0,97,0.00,,,0.19,VWS V14.01,2013-06-26 02:39:00,
2013-06-25 22:44:00,70.3,69.4,29.79,SSW,195,0.0,0.0,97,0.00,,,0.19,VWS V14.01,2013-06-26 02:44:00,
2013-06-25 22:49:00,70.2,69.3,29.78,SSW,195,0.0,0.0,97,0.00,,,0.19,VWS V14.01,2013-06-26 02:49:00,
2013-06-25 22:54:00,70.2,69.3,29.79,SSW,195,0.0,0.0,97,0.00,,,0.19,VWS V14.01,2013-06-26 02:54:00,
2013-06-25 22:59:00,70.1,69.2,29.79,SSW,195,0.0,0.0,97,0.00,,,0.19,VWS V14.01,2013-06-26 02:59:00,
2013-06-25 23:04:00,70.0,69.4,29.79,SSW,195,0.0,0.0,98,0.00,,,0.19,VWS V14.01,2013-06-26 03:04:00,
2013-06-25 23:10:00,70.0,69.4,29.79,SSW,195,0.0,0.0,98,0.00,,,0.19,VWS V14.01,2013-06-26 03:10:00,
2013-06-25 23:15:00,69.9,69.3,29.79,SSW,195,0.0,0.0,98,0.00,,,0.19,VWS V14.01,2013-06-26 03:15:00,
2013-06-25 23:20:00,69.8,69.2,29.78,SSW,195,0.0,0.0,98,0.00,,,0.19,VWS V14.01,2013-06-26 03:20:00,
2013-06-25 23:25:00,69.7,69.1,29.78,SSW,195,0.0,0.0,98,0.00,,,0.19,VWS V14.01,2013-06-26 03:25:00,
2013-06-25 23:30:00,69.7,69.1,29.79,SSW,195,0.0,0.0,98,0.00,,,0.19,VWS V14.01,2013-06-26 03:30:00,
2013-06-25 23:35:00,69.6,69.0,29.79,SSW,195,0.0,0.0,98,0.00,,,0.19,VWS V14.01,2013-06-26 03:35:00,
2013-06-25 23:40:00,69.7,69.1,29.79,SSW,195,0.0,0.0,98,0.00,,,0.19,VWS V14.01,2013-06-26 03:40:00,
2013-06-25 23:46:00,69.8,69.2,29.78,SSW,195,0.0,1.0,98,0.00,,,0.19,VWS V14.01,2013-06-26 03:46:00,
2013-06-25 23:51:00,69.8,69.2,29.79,SSW,195,0.0,1.0,98,0.00,,,0.19,VWS V14.01,2013-06-26 03:51:00,
2013-06-25 23:56:00,69.7,69.1,29.78,SSW,195,0.0,1.0,98,0.00,,,0.19,VWS V14.01,2013-06-26 03:56:00,